Time;durP1;ratioP1;P1;durP2;ratioP2;P2;SDS_P1;SDS_P2;PMS_P1;PMS_P2;Temp;Humidity;BMP_temperature;BMP_pressure;BME280_temperature;BME280_humidity;BME280_pressure;Samples;Min_cycle;Max_cycle;Signal;HPM_P1;HPM_P2
2022/08/04 00:02:05;;;;;;;10.40;7.10;;;;;;;20.85;64.80;100678.76;104667;1268;139741;-74
2022/08/04 00:04:44;;;;;;;8.50;7.40;;;;;;;20.83;64.94;100684.88;104746;1268;95211;-75
2022/08/04 00:07:25;;;;;;;9.50;7.20;;;;;;;20.79;65.03;100680.96;104839;1269;109839;-74
2022/08/04 00:10:16;;;;;;;9.70;7.30;;;;;;;20.77;65.03;100680.20;104783;1268;99385;-73
2022/08/04 00:12:51;;;;;;;9.90;7.00;;;;;;;20.77;65.00;100684.73;104728;1268;108816;-74
2022/08/04 00:15:20;;;;;;;10.70;7.30;;;;;;;20.79;64.98;100683.14;104560;1270;139056;-74
2022/08/04 00:17:59;;;;;;;9.80;7.50;;;;;;;20.81;65.07;100683.04;104747;1268;95681;-74
2022/08/04 00:20:32;;;;;;;10.20;6.70;;;;;;;20.76;65.05;100680.63;104694;1270;138743;-72
2022/08/04 00:23:04;;;;;;;10.00;7.80;;;;;;;20.70;65.07;100686.20;104847;1267;99471;-73
2022/08/04 00:25:33;;;;;;;11.20;7.30;;;;;;;20.69;65.23;100684.13;104469;1270;109514;-73
2022/08/04 00:28:01;;;;;;;11.10;7.70;;;;;;;20.65;65.55;100683.83;104632;1268;139535;-73
2022/08/04 00:30:29;;;;;;;10.10;7.90;;;;;;;20.60;65.81;100687.41;104771;1268;96136;-74
2022/08/04 00:32:59;;;;;;;9.80;7.70;;;;;;;20.54;65.95;100690.95;104668;1268;139089;-73
2022/08/04 00:35:28;;;;;;;9.40;7.80;;;;;;;20.49;65.98;100689.33;105116;1268;100207;-73
2022/08/04 00:37:57;;;;;;;10.10;7.50;;;;;;;20.41;66.18;100689.63;104718;1270;139307;-73
2022/08/04 00:40:42;;;;;;;14.30;7.60;;;;;;;20.36;66.29;100688.34;104707;1268;95268;-73
2022/08/04 00:43:33;;;;;;;10.20;7.90;;;;;;;20.32;66.54;100686.78;104613;1270;96562;-73
2022/08/04 00:46:45;;;;;;;10.10;7.60;;;;;;;20.28;66.47;100687.96;104564;1268;139922;-74
2022/08/04 00:50:08;;;;;;;10.40;7.40;;;;;;;20.22;66.87;100684.71;104660;1268;202819;-73
2022/08/04 00:52:45;;;;;;;9.50;7.60;;;;;;;20.19;66.88;100681.30;104096;1276;108849;-73
2022/08/04 00:55:16;;;;;;;10.40;7.50;;;;;;;20.18;67.04;100686.05;104763;1268;95114;-73
2022/08/04 00:58:08;;;;;;;9.40;7.10;;;;;;;20.17;67.20;100687.92;104552;1270;138996;-73
2022/08/04 01:00:53;;;;;;;10.30;7.80;;;;;;;20.14;67.24;100689.02;104789;1268;109741;-74
2022/08/04 01:03:40;;;;;;;9.70;7.30;;;;;;;20.12;66.90;100685.69;104610;1270;139581;-74
2022/08/04 01:06:17;;;;;;;9.80;7.50;;;;;;;20.10;66.81;100687.79;104722;1268;109319;-74
2022/08/04 01:09:01;;;;;;;10.10;7.40;;;;;;;20.13;66.97;100688.14;104364;1270;138997;-74
2022/08/04 01:12:00;;;;;;;10.50;7.60;;;;;;;20.11;66.98;100691.52;104724;1268;95254;-74
2022/08/04 01:14:28;;;;;;;8.70;6.80;;;;;;;20.11;67.22;100692.60;104618;1268;139882;-72
2022/08/04 01:17:39;;;;;;;11.70;7.60;;;;;;;20.10;66.92;100695.36;104770;1268;97773;-74
2022/08/04 01:20:10;;;;;;;9.90;7.40;;;;;;;20.07;67.29;100697.15;104344;1270;139201;-74
2022/08/04 01:23:00;;;;;;;10.10;7.20;;;;;;;20.07;67.30;100698.06;104762;1268;95759;-73
2022/08/04 01:25:45;;;;;;;9.30;7.80;;;;;;;20.03;67.08;100698.31;104805;1268;95299;-73
2022/08/04 01:28:38;;;;;;;10.60;7.00;;;;;;;19.97;67.22;100699.38;104773;1268;110253;-73
2022/08/04 01:31:20;;;;;;;9.50;6.90;;;;;;;19.94;67.24;100701.36;104747;1270;99433;-72
2022/08/04 01:33:53;;;;;;;10.40;7.30;;;;;;;19.94;67.14;100702.28;104677;1270;139381;-73
2022/08/04 01:36:34;;;;;;;10.00;7.90;;;;;;;19.91;67.07;100704.98;104723;1268;95227;-73
2022/08/04 01:41:52;;;;;;;9.70;7.10;;;;;;;19.84;67.20;100701.05;104710;1270;109730;-73
2022/08/04 01:44:30;;;;;;;9.70;6.80;;;;;;;19.80;67.23;100705.42;104684;1268;139238;-73
2022/08/04 01:47:00;;;;;;;9.80;7.30;;;;;;;19.76;66.99;100705.49;104733;1270;108920;-74
2022/08/04 01:49:30;;;;;;;8.90;7.00;;;;;;;19.72;67.16;100702.46;104783;1270;95200;-72
2022/08/04 01:52:09;;;;;;;10.10;7.00;;;;;;;19.70;67.01;100701.35;104793;1268;95140;-73
2022/08/04 01:54:40;;;;;;;10.30;7.10;;;;;;;19.67;67.19;100698.80;104986;1268;109737;-74
2022/08/04 01:57:10;;;;;;;9.60;7.00;;;;;;;19.66;67.05;100697.40;104620;1268;139199;-73
2022/08/04 01:59:59;;;;;;;10.90;7.30;;;;;;;19.64;67.06;100698.79;104707;1268;110742;-73
2022/08/04 02:02:27;;;;;;;10.40;7.30;;;;;;;19.62;66.99;100693.01;104635;1268;139478;-73
2022/08/04 02:04:55;;;;;;;10.90;6.80;;;;;;;19.60;66.97;100695.64;104678;1270;95217;-72
2022/08/04 02:07:49;;;;;;;10.00;7.00;;;;;;;19.57;66.98;100697.41;104692;1267;109783;-73
2022/08/04 02:10:28;;;;;;;9.80;6.60;;;;;;;19.54;67.10;100694.54;104678;1270;99357;-74
2022/08/04 02:13:15;;;;;;;9.90;6.60;;;;;;;19.53;66.91;100696.05;104682;1269;108832;-73
2022/08/04 02:16:08;;;;;;;9.70;6.50;;;;;;;19.51;66.81;100691.67;104638;1268;139261;-73
2022/08/04 02:18:41;;;;;;;9.10;6.50;;;;;;;19.49;66.82;100690.33;104704;1270;95226;-73
2022/08/04 02:21:12;;;;;;;8.40;6.70;;;;;;;19.46;66.86;100689.05;104521;1270;138879;-74
2022/08/04 02:23:40;;;;;;;9.50;6.60;;;;;;;19.44;66.74;100687.92;104660;1270;98929;-74
2022/08/04 02:26:16;;;;;;;8.40;6.00;;;;;;;19.42;66.84;100683.70;104539;1270;138881;-74
2022/08/04 02:29:11;;;;;;;9.30;6.60;;;;;;;19.40;66.96;100684.02;104699;1269;95286;-73
2022/08/04 02:32:11;;;;;;;8.40;6.30;;;;;;;19.37;67.09;100680.23;104652;1269;95617;-73
2022/08/04 02:34:59;;;;;;;10.80;6.60;;;;;;;19.33;67.03;100680.08;104643;1270;110385;-73
2022/08/04 02:37:30;;;;;;;8.70;6.80;;;;;;;19.32;67.25;100678.02;104769;1268;97416;-74
2022/08/04 02:40:02;;;;;;;8.90;6.10;;;;;;;19.31;67.13;100678.80;104804;1270;138585;-74
2022/08/04 02:42:33;;;;;;;9.30;6.60;;;;;;;19.29;67.29;100680.16;104757;1268;95302;-74
2022/08/04 02:45:02;;;;;;;10.30;6.00;;;;;;;19.26;67.33;100679.23;104504;1270;138724;-74
2022/08/04 02:47:30;;;;;;;8.80;6.40;;;;;;;19.24;67.51;100678.64;104692;1270;110065;-73
2022/08/04 02:50:19;;;;;;;10.30;6.40;;;;;;;19.23;67.53;100677.09;104626;1268;139712;-73
2022/08/04 02:53:01;;;;;;;8.80;6.80;;;;;;;19.21;67.77;100676.07;104691;1270;109064;-74
2022/08/04 02:55:31;;;;;;;9.00;6.40;;;;;;;19.19;67.76;100675.30;104765;1268;95773;-74
2022/08/04 02:58:03;;;;;;;8.90;6.50;;;;;;;19.16;67.76;100672.83;104617;1270;138581;-74
2022/08/04 03:00:31;;;;;;;9.20;6.40;;;;;;;19.15;67.65;100678.42;105268;1268;109829;-74
2022/08/04 03:03:08;;;;;;;9.40;6.40;;;;;;;19.13;67.66;100683.74;104696;1270;139450;-75
2022/08/04 03:05:52;;;;;;;8.80;6.70;;;;;;;19.12;67.84;100685.99;104719;1270;107836;-73
2022/08/04 03:08:43;;;;;;;8.20;5.90;;;;;;;19.10;67.78;100684.13;104694;1270;139468;-72
2022/08/04 03:11:41;;;;;;;8.40;6.50;;;;;;;19.09;67.87;100689.77;104858;1268;95125;-74
2022/08/04 03:14:29;;;;;;;8.60;6.20;;;;;;;19.15;67.69;100687.81;104572;1270;138923;-72
2022/08/04 03:17:20;;;;;;;8.40;6.40;;;;;;;19.20;67.65;100689.66;104782;1270;99444;-73
2022/08/04 03:19:48;;;;;;;7.70;5.90;;;;;;;19.24;67.60;100686.75;104664;1270;139442;-73
2022/08/04 03:22:40;;;;;;;8.40;6.40;;;;;;;19.22;67.71;100693.71;104875;1268;95315;-73
2022/08/04 03:26:05;;;;;;;8.00;6.10;;;;;;;19.16;67.60;100693.65;104855;1268;95729;-74
2022/08/04 03:28:51;;;;;;;8.30;6.00;;;;;;;19.12;67.63;100690.84;104801;1268;109878;-74
2022/08/04 03:31:40;;;;;;;9.60;6.70;;;;;;;19.10;67.60;100691.35;104763;1270;99590;-74
2022/08/04 03:34:40;;;;;;;9.60;6.30;;;;;;;19.08;67.67;100693.98;104765;1270;108833;-74
2022/08/04 03:37:30;;;;;;;9.60;6.70;;;;;;;19.09;67.63;100697.86;104548;1270;95135;-73
2022/08/04 03:40:14;;;;;;;8.70;6.10;;;;;;;19.13;67.65;100699.27;104682;1269;139014;-72
2022/08/04 03:43:09;;;;;;;8.70;6.20;;;;;;;19.13;67.59;100700.89;104646;1270;110295;-73
2022/08/04 03:46:46;;;;;;;8.30;5.60;;;;;;;19.14;67.55;100701.73;104652;1270;141628;-73
2022/08/04 03:49:51;;;;;;;9.20;6.50;;;;;;;19.14;67.47;100705.88;104244;1276;109055;-73
2022/08/04 03:55:29;;;;;;;8.60;6.20;;;;;;;19.17;67.80;100706.92;104837;1268;95479;-74
2022/08/04 03:58:18;;;;;;;10.80;6.50;;;;;;;19.18;67.47;100705.80;104747;1269;138467;-73
2022/08/04 04:01:19;;;;;;;9.10;6.30;;;;;;;19.19;67.56;100707.55;104768;1268;99473;-74
2022/08/04 04:04:14;;;;;;;9.60;6.10;;;;;;;19.20;67.38;100709.12;104679;1268;138750;-74
2022/08/04 04:07:07;;;;;;;9.50;6.20;;;;;;;19.19;67.08;100709.88;104805;1268;95205;-73
2022/08/04 04:09:55;;;;;;;9.20;6.20;;;;;;;19.20;67.34;100711.97;104775;1270;139286;-73
2022/08/04 04:12:48;;;;;;;8.70;6.20;;;;;;;19.21;67.20;100711.21;104822;1270;109953;-73
2022/08/04 04:15:53;;;;;;;9.30;6.00;;;;;;;19.24;67.59;100716.65;104803;1268;138820;-73
2022/08/04 04:18:46;;;;;;;8.30;5.80;;;;;;;19.22;67.15;100718.20;104858;1267;107636;-74
2022/08/04 04:22:01;;;;;;;8.50;5.90;;;;;;;19.23;66.98;100716.18;104639;1268;139349;-73
2022/08/04 04:24:50;;;;;;;10.40;6.00;;;;;;;19.23;67.00;100715.98;104668;1267;95140;-73
2022/08/04 04:27:30;;;;;;;9.60;6.10;;;;;;;19.24;66.92;100714.28;104688;1270;139120;-72
2022/08/04 04:30:07;;;;;;;9.00;5.90;;;;;;;19.27;66.86;100716.66;104846;1268;99641;-73
2022/08/04 04:33:03;;;;;;;9.20;5.60;;;;;;;19.31;67.23;100716.73;104710;1268;139231;-74
2022/08/04 04:36:10;;;;;;;9.90;5.60;;;;;;;19.38;66.60;100720.16;104773;1268;96556;-73
2022/08/04 04:39:11;;;;;;;10.00;5.50;;;;;;;19.42;66.45;100724.60;104743;1270;139861;-73
2022/08/04 04:42:07;;;;;;;8.90;5.70;;;;;;;19.46;66.15;100727.06;104763;1270;109849;-73
2022/08/04 04:44:35;;;;;;;8.80;5.50;;;;;;;19.50;66.18;100724.82;104645;1268;139601;-72
2022/08/04 04:47:13;;;;;;;9.10;5.20;;;;;;;19.57;65.82;100726.79;104732;1269;109104;-74
2022/08/04 04:50:02;;;;;;;9.00;5.60;;;;;;;19.64;65.71;100722.61;104749;1270;95688;-73
2022/08/04 04:52:44;;;;;;;7.60;5.00;;;;;;;19.73;65.31;100727.99;104816;1267;95205;-73
2022/08/04 04:55:18;;;;;;;7.40;4.70;;;;;;;19.82;64.76;100730.52;104710;1270;109650;-72
2022/08/04 04:57:50;;;;;;;8.90;4.70;;;;;;;19.91;64.18;100731.14;104651;1270;138999;-74
2022/08/04 05:00:25;;;;;;;8.70;4.50;;;;;;;19.99;63.44;100734.25;104703;1269;108774;-73
2022/08/04 05:03:22;;;;;;;8.70;4.80;;;;;;;20.08;63.45;100738.03;104650;1268;139031;-72
2022/08/04 05:06:16;;;;;;;7.90;4.40;;;;;;;20.17;63.18;100736.39;104623;1270;95094;-73
2022/08/04 05:09:01;;;;;;;7.60;4.50;;;;;;;20.28;63.26;100736.66;104587;1270;138878;-73
2022/08/04 05:11:57;;;;;;;8.00;4.20;;;;;;;20.38;63.33;100740.52;104668;1269;99368;-73
2022/08/04 05:14:43;;;;;;;8.10;4.30;;;;;;;20.46;62.06;100738.41;104675;1267;138978;-71
2022/08/04 05:17:17;;;;;;;7.40;4.30;;;;;;;20.54;62.45;100737.92;104658;1270;95977;-72
2022/08/04 05:20:14;;;;;;;8.40;4.60;;;;;;;20.62;62.50;100735.95;104691;1270;139006;-73
2022/08/04 05:23:20;;;;;;;9.40;5.80;;;;;;;20.73;62.03;100735.13;104826;1269;109712;-74
2022/08/04 05:26:08;;;;;;;7.30;4.50;;;;;;;20.85;62.04;100734.71;104183;1276;139376;-74
2022/08/04 05:28:50;;;;;;;6.90;4.10;;;;;;;20.95;61.29;100731.94;104722;1269;108745;-73
2022/08/04 05:31:25;;;;;;;7.60;4.00;;;;;;;21.05;61.16;100733.65;104739;1268;96397;-73
2022/08/04 05:34:16;;;;;;;7.40;3.90;;;;;;;21.15;61.71;100731.16;104638;1268;138989;-73
2022/08/04 05:36:51;;;;;;;6.60;4.00;;;;;;;21.26;61.20;100736.80;104694;1267;110605;-73
2022/08/04 05:39:23;;;;;;;10.00;4.50;;;;;;;21.31;60.27;100736.30;104581;1267;139065;-73
2022/08/04 05:41:52;;;;;;;8.40;4.30;;;;;;;21.36;60.54;100736.30;104846;1267;107261;-73
2022/08/04 05:44:27;;;;;;;8.80;4.20;;;;;;;21.42;60.27;100740.83;104633;1267;141436;-73
2022/08/04 05:46:57;;;;;;;8.00;3.90;;;;;;;21.45;59.37;100740.81;104850;1267;95253;-74
2022/08/04 05:49:27;;;;;;;8.30;4.00;;;;;;;21.49;59.49;100743.02;104846;1267;108300;-73
2022/08/04 05:52:01;;;;;;;10.10;4.30;;;;;;;21.55;59.46;100744.27;105270;1267;138842;-74
2022/08/04 05:54:31;;;;;;;6.40;4.00;;;;;;;21.64;59.84;100748.58;104769;1267;108892;-74
2022/08/04 05:57:01;;;;;;;9.10;4.30;;;;;;;21.69;59.80;100754.72;104671;1267;139038;-73
2022/08/04 05:59:31;;;;;;;9.50;4.00;;;;;;;21.71;59.80;100756.38;104758;1268;96091;-72
2022/08/04 06:02:01;;;;;;;8.10;4.10;;;;;;;21.78;59.95;100755.41;104743;1267;138949;-73
2022/08/04 06:04:38;;;;;;;9.40;4.00;;;;;;;21.79;59.37;100758.61;104661;1270;99369;-73
2022/08/04 06:07:07;;;;;;;10.00;4.20;;;;;;;21.78;59.30;100759.04;105119;1267;106810;-73
2022/08/04 06:09:35;;;;;;;7.90;4.20;;;;;;;21.83;59.64;100758.31;104749;1267;139052;-72
2022/08/04 06:12:08;;;;;;;10.30;4.50;;;;;;;21.92;59.75;100756.60;104913;1267;95196;-73
2022/08/04 06:14:42;;;;;;;7.40;3.90;;;;;;;21.99;59.25;100759.19;104781;1267;140072;-73
2022/08/04 06:17:14;;;;;;;8.00;4.30;;;;;;;22.08;59.10;100755.73;104871;1267;99525;-74
2022/08/04 06:20:04;;;;;;;9.10;4.40;;;;;;;22.16;59.06;100757.10;104732;1267;138925;-73
2022/08/04 06:22:53;;;;;;;8.80;4.40;;;;;;;22.29;59.23;100759.66;104853;1267;96966;-73
2022/08/04 06:25:28;;;;;;;9.40;4.40;;;;;;;22.41;59.54;100763.77;104732;1267;97007;-73
2022/08/04 06:27:58;;;;;;;10.00;3.80;;;;;;;22.51;58.48;100760.91;104614;1267;138797;-73
2022/08/04 06:30:29;;;;;;;10.70;4.80;;;;;;;22.54;57.75;100763.18;104785;1267;98742;-73
2022/08/04 06:33:12;;;;;;;7.30;4.10;;;;;;;22.61;57.92;100766.02;104811;1267;138931;-73
2022/08/04 06:35:41;;;;;;;7.50;3.90;;;;;;;22.68;57.78;100761.12;104758;1268;95252;-73
2022/08/04 06:38:10;;;;;;;9.70;4.20;;;;;;;22.73;57.96;100762.95;104669;1268;139213;-73
2022/08/04 06:40:40;;;;;;;8.00;4.10;;;;;;;22.81;58.67;100762.36;104976;1268;109780;-74
2022/08/04 06:43:08;;;;;;;8.30;4.10;;;;;;;22.89;57.75;100767.64;104723;1268;99483;-73
2022/08/04 06:45:40;;;;;;;8.60;4.60;;;;;;;22.90;57.95;100765.00;104724;1268;138765;-74
2022/08/04 06:48:11;;;;;;;8.90;4.40;;;;;;;22.95;58.56;100761.73;104931;1268;96171;-74
2022/08/04 06:50:42;;;;;;;7.80;4.20;;;;;;;23.02;57.29;100763.39;104610;1270;138140;-72
2022/08/04 06:53:30;;;;;;;8.90;4.30;;;;;;;23.13;56.56;100760.61;104827;1269;108570;-72
2022/08/04 06:56:00;;;;;;;9.30;3.90;;;;;;;23.24;56.28;100757.67;104761;1267;138218;-73
2022/08/04 06:58:32;;;;;;;8.00;3.60;;;;;;;23.36;56.84;100756.98;104801;1269;107806;-73
2022/08/04 07:01:01;;;;;;;8.80;3.80;;;;;;;23.48;56.52;100751.92;104790;1268;95634;-73
2022/08/04 07:03:31;;;;;;;9.00;4.00;;;;;;;23.60;56.74;100753.95;104663;1268;138026;-73
2022/08/04 07:06:00;;;;;;;9.20;3.70;;;;;;;23.72;57.46;100757.52;104748;1270;109702;-74
2022/08/04 07:08:34;;;;;;;9.50;4.10;;;;;;;23.82;57.38;100755.67;104617;1269;138668;-78
2022/08/04 07:11:04;;;;;;;7.70;3.50;;;;;;;23.92;55.89;100751.52;104756;1270;108948;-74
2022/08/04 07:13:32;;;;;;;7.00;3.30;;;;;;;24.03;53.24;100753.77;104842;1269;95453;-73
2022/08/04 07:16:00;;;;;;;8.90;3.80;;;;;;;24.10;53.16;100753.72;104683;1269;139088;-73
2022/08/04 07:18:30;;;;;;;10.60;3.70;;;;;;;24.16;53.01;100752.04;104783;1270;109677;-73
2022/08/04 07:20:59;;;;;;;9.00;3.70;;;;;;;24.25;53.94;100755.11;104672;1269;138915;-73
2022/08/04 07:23:27;;;;;;;6.70;3.50;;;;;;;24.38;53.71;100751.98;104793;1268;109099;-74
2022/08/04 07:25:57;;;;;;;10.00;4.20;;;;;;;24.49;53.49;100753.42;104681;1268;138352;-74
2022/08/04 07:28:40;;;;;;;7.70;3.60;;;;;;;24.61;53.36;100750.70;104780;1269;95531;-74
2022/08/04 07:31:13;;;;;;;7.60;3.50;;;;;;;24.69;52.17;100750.60;105008;1269;109472;-74
2022/08/04 07:34:02;;;;;;;10.20;4.10;;;;;;;24.79;52.97;100754.30;104891;1270;138015;-73
2022/08/04 07:36:51;;;;;;;6.90;3.30;;;;;;;24.90;52.44;100755.67;104672;1270;109686;-74
2022/08/04 07:39:24;;;;;;;7.10;3.30;;;;;;;25.00;50.60;100754.08;104686;1270;139013;-73
2022/08/04 07:41:59;;;;;;;6.70;3.60;;;;;;;25.11;50.54;100761.20;104822;1270;96946;-72
2022/08/04 07:44:34;;;;;;;9.10;3.20;;;;;;;25.19;50.44;100758.36;105163;1269;138727;-74
2022/08/04 07:47:05;;;;;;;6.30;3.40;;;;;;;25.25;49.91;100754.23;104843;1268;96229;-73
2022/08/04 07:49:34;;;;;;;8.40;3.40;;;;;;;25.32;50.07;100755.32;104896;1268;108752;-73
2022/08/04 07:52:22;;;;;;;7.70;3.00;;;;;;;25.41;49.03;100751.73;104799;1270;96032;-72
2022/08/04 07:54:52;;;;;;;6.00;3.00;;;;;;;25.48;48.64;100757.14;104802;1268;95626;-74
2022/08/04 07:57:20;;;;;;;6.50;3.00;;;;;;;25.55;48.82;100755.80;104477;1270;138104;-73
2022/08/04 08:00:10;;;;;;;6.30;3.20;;;;;;;25.66;48.84;100755.10;104824;1268;99902;-73
2022/08/04 08:02:39;;;;;;;7.40;3.10;;;;;;;25.77;48.00;100753.98;105041;1268;138539;-74
2022/08/04 08:05:15;;;;;;;7.50;2.90;;;;;;;25.85;47.98;100753.11;104766;1270;96132;-74
2022/08/04 08:07:48;;;;;;;6.30;2.80;;;;;;;25.94;48.42;100751.95;104694;1270;138375;-73
2022/08/04 08:10:22;;;;;;;6.40;2.70;;;;;;;26.08;47.60;100752.83;104753;1268;110055;-74
2022/08/04 08:12:52;;;;;;;5.70;2.80;;;;;;;26.12;47.10;100747.34;105091;1268;98882;-73
2022/08/04 08:15:21;;;;;;;6.60;2.60;;;;;;;26.19;47.44;100747.13;104723;1269;138735;-74
2022/08/04 08:17:49;;;;;;;7.60;2.40;;;;;;;26.27;45.99;100747.70;104748;1270;95538;-73
2022/08/04 08:20:29;;;;;;;5.70;2.30;;;;;;;26.37;45.65;100751.41;104788;1270;138234;-73
2022/08/04 08:22:59;;;;;;;4.80;2.10;;;;;;;26.49;44.80;100749.64;104929;1270;109746;-74
2022/08/04 08:25:30;;;;;;;6.30;2.20;;;;;;;26.59;44.60;100751.30;104900;1268;98646;-75
2022/08/04 08:28:01;;;;;;;4.60;2.40;;;;;;;26.71;43.87;100749.15;104596;1270;137920;-73
2022/08/04 08:30:30;;;;;;;5.70;2.10;;;;;;;26.79;43.01;100745.73;104788;1268;95605;-74
2022/08/04 08:33:02;;;;;;;4.90;2.00;;;;;;;26.90;42.44;100746.20;104758;1270;138037;-74
2022/08/04 08:35:55;;;;;;;6.20;2.10;;;;;;;27.01;42.98;100747.23;104756;1270;109708;-73
2022/08/04 08:38:36;;;;;;;4.60;2.00;;;;;;;27.13;42.12;100748.84;104497;1270;138454;-74
2022/08/04 08:41:30;;;;;;;5.40;2.30;;;;;;;27.26;41.74;100750.24;104791;1268;108902;-73
2022/08/04 08:45:03;;;;;;;5.30;2.10;;;;;;;27.39;42.50;100750.54;104681;1270;138419;-74
2022/08/04 08:47:46;;;;;;;5.80;2.10;;;;;;;27.54;42.44;100747.71;103627;1278;95780;-75
2022/08/04 08:50:52;;;;;;;4.70;2.30;;;;;;;27.70;41.19;100752.77;104608;1268;137969;-75
2022/08/04 08:53:36;;;;;;;4.60;2.20;;;;;;;27.84;41.64;100750.62;104744;1270;99695;-73
2022/08/04 08:56:29;;;;;;;4.60;2.20;;;;;;;28.03;42.25;100752.28;104634;1268;138269;-73
2022/08/04 08:59:26;;;;;;;5.20;2.40;;;;;;;28.19;40.77;100747.37;104802;1268;95479;-73
2022/08/04 09:02:18;;;;;;;5.70;2.30;;;;;;;28.34;41.49;100745.58;104635;1269;138377;-74
2022/08/04 09:05:04;;;;;;;5.40;2.10;;;;;;;28.42;40.31;100748.41;104758;1270;109325;-73
2022/08/04 09:08:06;;;;;;;6.10;1.80;;;;;;;28.47;39.55;100749.38;104745;1269;98690;-73
2022/08/04 09:10:40;;;;;;;4.90;2.00;;;;;;;28.59;39.71;100747.77;104789;1270;108927;-75
2022/08/04 09:13:25;;;;;;;4.50;1.90;;;;;;;28.99;38.07;100739.47;104794;1270;95296;-74
2022/08/04 09:16:01;;;;;;;5.10;2.20;;;;;;;29.27;37.06;100743.88;104662;1268;138311;-73
2022/08/04 09:18:42;;;;;;;4.20;2.20;;;;;;;29.24;39.22;100742.15;104565;1270;109037;-73
2022/08/04 09:21:16;;;;;;;7.10;2.10;;;;;;;29.31;38.55;100741.20;104685;1270;138823;-72
2022/08/04 09:23:46;;;;;;;7.70;2.30;;;;;;;29.38;38.22;100745.48;104550;1270;108786;-74
2022/08/04 09:26:33;;;;;;;5.50;2.40;;;;;;;29.57;38.54;100739.88;104408;1270;138411;-73
2022/08/04 09:29:18;;;;;;;5.10;2.10;;;;;;;29.82;38.36;100742.69;104717;1269;97463;-74
2022/08/04 09:32:25;;;;;;;5.20;2.50;;;;;;;30.21;37.20;100740.88;104600;1268;138858;-73
2022/08/04 09:35:00;;;;;;;5.40;1.90;;;;;;;31.63;34.71;100735.82;104769;1268;98657;-73
2022/08/04 09:37:47;;;;;;;3.50;1.50;;;;;;;32.74;33.10;100735.42;104719;1268;109176;-72
2022/08/04 09:40:34;;;;;;;5.20;1.80;;;;;;;33.55;30.78;100738.77;104724;1270;95669;-73
2022/08/04 09:43:37;;;;;;;5.10;2.00;;;;;;;34.49;29.61;100744.52;104742;1268;95198;-74
2022/08/04 09:46:29;;;;;;;5.00;1.90;;;;;;;35.33;28.55;100739.38;104834;1270;108831;-72
2022/08/04 09:49:15;;;;;;;4.50;1.80;;;;;;;36.00;27.26;100739.44;104755;1268;99488;-73
2022/08/04 09:51:52;;;;;;;5.80;1.80;;;;;;;36.64;26.40;100735.39;104631;1270;138068;-74
2022/08/04 09:54:58;;;;;;;4.10;1.70;;;;;;;37.63;26.16;100737.47;104857;1270;95686;-72
2022/08/04 09:57:41;;;;;;;4.20;1.70;;;;;;;38.34;24.34;100740.23;104673;1270;138043;-71
2022/08/04 10:00:15;;;;;;;4.90;1.60;;;;;;;38.53;24.44;100740.80;104718;1270;110477;-73
2022/08/04 10:02:49;;;;;;;4.70;1.80;;;;;;;39.05;23.86;100737.92;104584;1270;138808;-72
2022/08/04 10:05:25;;;;;;;5.00;1.80;;;;;;;39.74;23.71;100737.13;104746;1269;108942;-72
2022/08/04 10:08:32;;;;;;;4.50;1.80;;;;;;;39.91;22.33;100736.21;104622;1270;142036;-72
2022/08/04 10:11:00;;;;;;;4.30;1.70;;;;;;;39.73;22.60;100733.13;104721;1269;95747;-72
2022/08/04 10:13:59;;;;;;;6.40;1.90;;;;;;;39.87;22.87;100734.41;104763;1268;109703;-72
2022/08/04 10:16:52;;;;;;;4.70;1.80;;;;;;;40.56;23.14;100733.09;104581;1268;99876;-72
2022/08/04 10:19:26;;;;;;;4.10;1.80;;;;;;;40.88;22.47;100729.35;104827;1268;108777;-72
2022/08/04 10:22:27;;;;;;;4.70;1.80;;;;;;;41.15;21.47;100729.96;104698;1268;138578;-72
2022/08/04 10:25:23;;;;;;;5.30;1.90;;;;;;;41.51;22.22;100723.02;104746;1268;95815;-72
2022/08/04 10:28:16;;;;;;;4.80;1.70;;;;;;;41.94;20.55;100726.63;104747;1268;109818;-71
2022/08/04 10:30:50;;;;;;;4.50;1.90;;;;;;;41.48;20.67;100723.07;104747;1268;97911;-71
2022/08/04 10:33:26;;;;;;;4.70;1.90;;;;;;;41.56;20.63;100724.58;104608;1269;138004;-71
2022/08/04 10:36:02;;;;;;;8.00;1.80;;;;;;;41.58;21.14;100722.96;104778;1269;95576;-71
2022/08/04 10:38:45;;;;;;;4.40;2.10;;;;;;;41.86;20.76;100720.46;104861;1268;138059;-72
2022/08/04 10:41:41;;;;;;;5.20;2.00;;;;;;;41.91;20.65;100719.17;104816;1268;110004;-71
2022/08/04 10:44:36;;;;;;;5.30;1.90;;;;;;;41.79;20.13;100709.00;104698;1271;138734;-71
2022/08/04 10:47:15;;;;;;;5.50;2.10;;;;;;;41.86;20.43;100708.55;104802;1268;108900;-71
2022/08/04 10:49:53;;;;;;;4.60;1.90;;;;;;;42.06;20.52;100705.02;104652;1269;139177;-72
2022/08/04 10:52:38;;;;;;;4.50;2.10;;;;;;;42.23;21.23;100703.21;104916;1268;95205;-72
2022/08/04 10:55:09;;;;;;;4.90;2.30;;;;;;;42.38;19.91;100703.47;104757;1269;109667;-72
2022/08/04 10:57:54;;;;;;;4.70;1.80;;;;;;;42.55;19.51;100701.76;104650;1269;139277;-72
2022/08/04 11:00:25;;;;;;;4.50;2.10;;;;;;;42.64;19.20;100699.75;104757;1268;109006;-72
2022/08/04 11:03:16;;;;;;;6.30;1.80;;;;;;;42.23;19.59;100701.04;104671;1268;138772;-71
2022/08/04 11:05:49;;;;;;;3.90;2.00;;;;;;;40.86;21.35;100701.16;104714;1269;96586;-72
2022/08/04 11:08:23;;;;;;;5.60;2.20;;;;;;;40.14;22.16;100699.83;104652;1268;138243;-71
2022/08/04 11:10:57;;;;;;;4.40;2.20;;;;;;;39.06;22.54;100697.15;104767;1270;99462;-71
2022/08/04 11:13:43;;;;;;;4.20;2.10;;;;;;;38.05;24.41;100699.70;104768;1270;109030;-71
2022/08/04 11:16:29;;;;;;;4.00;2.40;;;;;;;36.84;24.35;100703.98;104716;1268;95645;-71
2022/08/04 11:19:07;;;;;;;5.10;2.60;;;;;;;36.00;25.24;100698.34;104794;1268;96118;-71
2022/08/04 11:21:43;;;;;;;6.50;2.50;;;;;;;35.13;26.51;100698.92;104632;1268;138512;-71
2022/08/04 11:24:24;;;;;;;5.00;2.70;;;;;;;34.45;27.42;100702.90;104759;1268;99915;-71
2022/08/04 11:27:00;;;;;;;6.70;2.80;;;;;;;33.95;28.61;100703.73;104662;1268;140096;-70
2022/08/04 11:30:06;;;;;;;5.30;2.50;;;;;;;33.67;29.28;100694.63;104900;1270;96171;-70
2022/08/04 11:32:52;;;;;;;5.20;2.80;;;;;;;33.41;29.78;100695.04;104440;1271;139082;-71
2022/08/04 11:35:58;;;;;;;7.10;2.70;;;;;;;33.06;30.35;100693.56;104755;1268;109822;-71
2022/08/04 11:39:00;;;;;;;5.90;2.40;;;;;;;32.56;30.70;100695.73;104683;1270;138681;-71
2022/08/04 11:41:37;;;;;;;4.90;2.50;;;;;;;32.07;31.06;100695.67;104777;1270;108805;-71
2022/08/04 11:44:10;;;;;;;5.80;2.90;;;;;;;31.83;32.29;100694.93;104632;1268;138465;-71
2022/08/04 11:46:49;;;;;;;4.90;2.80;;;;;;;31.64;32.39;100693.36;104828;1270;95212;-72
2022/08/04 11:49:26;;;;;;;5.90;2.80;;;;;;;31.33;32.17;100687.05;104758;1270;109785;-72
2022/08/04 11:51:57;;;;;;;5.90;2.70;;;;;;;31.16;32.70;100688.50;104699;1270;140747;-72
2022/08/04 11:54:26;;;;;;;4.70;2.50;;;;;;;30.93;33.61;100690.84;104713;1271;108847;-72
2022/08/04 11:56:54;;;;;;;5.10;2.90;;;;;;;30.80;34.00;100686.05;104653;1270;138698;-72
2022/08/04 11:59:24;;;;;;;5.40;2.70;;;;;;;30.77;33.84;100686.63;104716;1271;95852;-73
2022/08/04 12:02:29;;;;;;;6.50;2.90;;;;;;;30.79;34.49;100682.95;104805;1270;138412;-73
2022/08/04 12:05:03;;;;;;;5.10;2.80;;;;;;;30.78;34.96;100684.84;104771;1270;99542;-73
2022/08/04 12:07:48;;;;;;;5.80;2.90;;;;;;;30.79;34.29;100682.95;104741;1271;108902;-73
2022/08/04 12:10:37;;;;;;;5.80;2.70;;;;;;;30.67;33.86;100681.69;104853;1270;95930;-73
2022/08/04 12:13:27;;;;;;;5.00;2.80;;;;;;;30.51;34.28;100683.34;104664;1270;95665;-72
2022/08/04 12:16:09;;;;;;;6.00;3.00;;;;;;;30.44;35.66;100679.16;104714;1269;138329;-72
2022/08/04 12:18:44;;;;;;;5.20;2.80;;;;;;;30.32;34.70;100679.09;104810;1268;99388;-72
2022/08/04 12:21:27;;;;;;;6.30;2.90;;;;;;;30.21;34.65;100680.84;104659;1268;138705;-72
2022/08/04 12:24:02;;;;;;;5.10;3.00;;;;;;;30.06;34.88;100679.61;104742;1271;95851;-73